sensor_id;sensor_type;location;lat;lon;timestamp;pressure;altitude;pressure_sealevel;temperature;humidity
77893;BME280;67087;50.094;14.338;2023-04-01T00:01:44;96331.95;;;25.85;37.40
77893;BME280;67087;50.094;14.338;2023-04-01T00:04:10;96334.55;;;26.03;37.47
77893;BME280;67087;50.094;14.338;2023-04-01T00:06:35;96335.83;;;26.09;37.31
77893;BME280;67087;50.094;14.338;2023-04-01T00:08:59;96338.60;;;26.15;37.23
77893;BME280;67087;50.094;14.338;2023-04-01T00:11:25;96335.62;;;26.05;37.31
77893;BME280;67087;50.094;14.338;2023-04-01T00:13:50;96328.90;;;26.32;37.29
77893;BME280;67087;50.094;14.338;2023-04-01T00:16:15;96334.98;;;26.07;37.32
77893;BME280;67087;50.094;14.338;2023-04-01T00:18:40;96333.97;;;26.44;37.13
77893;BME280;67087;50.094;14.338;2023-04-01T00:21:05;96330.88;;;25.88;37.20
77893;BME280;67087;50.094;14.338;2023-04-01T00:23:30;96334.00;;;26.17;37.17
77893;BME280;67087;50.094;14.338;2023-04-01T00:25:55;96327.42;;;26.33;37.23
77893;BME280;67087;50.094;14.338;2023-04-01T00:28:20;96325.71;;;26.38;37.23
77893;BME280;67087;50.094;14.338;2023-04-01T00:30:46;96323.84;;;26.04;37.28
77893;BME280;67087;50.094;14.338;2023-04-01T00:33:11;96331.51;;;26.09;37.23
77893;BME280;67087;50.094;14.338;2023-04-01T00:35:36;96321.31;;;26.11;37.13
77893;BME280;67087;50.094;14.338;2023-04-01T00:38:01;96318.82;;;26.08;37.19
77893;BME280;67087;50.094;14.338;2023-04-01T00:40:29;96316.25;;;26.09;37.21
77893;BME280;67087;50.094;14.338;2023-04-01T00:42:51;96322.30;;;26.28;37.19
77893;BME280;67087;50.094;14.338;2023-04-01T00:45:29;96320.51;;;25.86;37.05
77893;BME280;67087;50.094;14.338;2023-04-01T00:47:41;96324.19;;;26.01;37.17
77893;BME280;67087;50.094;14.338;2023-04-01T00:50:07;96325.76;;;26.31;37.08
77893;BME280;67087;50.094;14.338;2023-04-01T00:52:31;96324.49;;;26.14;36.99
77893;BME280;67087;50.094;14.338;2023-04-01T00:54:59;96324.04;;;26.06;37.07
77893;BME280;67087;50.094;14.338;2023-04-01T00:57:25;96326.70;;;26.05;37.08
77893;BME280;67087;50.094;14.338;2023-04-01T00:59:49;96325.84;;;25.67;37.16
77893;BME280;67087;50.094;14.338;2023-04-01T01:02:13;96321.83;;;25.99;37.09
77893;BME280;67087;50.094;14.338;2023-04-01T01:04:37;96323.51;;;26.01;37.08
77893;BME280;67087;50.094;14.338;2023-04-01T01:07:10;96318.00;;;26.22;37.09
77893;BME280;67087;50.094;14.338;2023-04-01T01:09:34;96324.76;;;25.89;37.21
77893;BME280;67087;50.094;14.338;2023-04-01T01:11:54;96319.38;;;26.25;37.01
77893;BME280;67087;50.094;14.338;2023-04-01T01:14:28;96325.99;;;25.97;37.12
77893;BME280;67087;50.094;14.338;2023-04-01T01:16:45;96319.88;;;25.99;37.00
77893;BME280;67087;50.094;14.338;2023-04-01T01:19:18;96320.45;;;25.93;37.08
77893;BME280;67087;50.094;14.338;2023-04-01T01:21:51;96318.73;;;26.27;36.92
77893;BME280;67087;50.094;14.338;2023-04-01T01:24:09;96315.73;;;26.27;37.00
77893;BME280;67087;50.094;14.338;2023-04-01T01:28:55;96317.57;;;26.04;36.95
77893;BME280;67087;50.094;14.338;2023-04-01T01:31:17;96320.06;;;26.03;36.88
77893;BME280;67087;50.094;14.338;2023-04-01T01:33:48;96318.75;;;26.07;36.87
77893;BME280;67087;50.094;14.338;2023-04-01T01:36:05;96319.16;;;25.86;36.89
77893;BME280;67087;50.094;14.338;2023-04-01T01:38:31;96316.36;;;26.09;36.81
77893;BME280;67087;50.094;14.338;2023-04-01T01:40:55;96317.35;;;26.02;36.87
77893;BME280;67087;50.094;14.338;2023-04-01T01:43:24;96316.35;;;26.11;36.80
77893;BME280;67087;50.094;14.338;2023-04-01T01:45:47;96318.03;;;26.09;36.82
77893;BME280;67087;50.094;14.338;2023-04-01T01:48:10;96320.47;;;26.11;36.83
77893;BME280;67087;50.094;14.338;2023-04-01T01:50:34;96311.59;;;25.88;36.76
77893;BME280;67087;50.094;14.338;2023-04-01T01:53:02;96317.23;;;26.03;36.81
77893;BME280;67087;50.094;14.338;2023-04-01T01:55:27;96318.49;;;26.04;36.84
77893;BME280;67087;50.094;14.338;2023-04-01T01:57:49;96318.43;;;26.07;36.80
77893;BME280;67087;50.094;14.338;2023-04-01T02:00:15;96328.25;;;25.77;36.89
77893;BME280;67087;50.094;14.338;2023-04-01T02:02:39;96328.88;;;26.31;36.77
77893;BME280;67087;50.094;14.338;2023-04-01T02:05:05;96321.14;;;26.20;36.97
77893;BME280;67087;50.094;14.338;2023-04-01T02:07:33;96326.87;;;26.00;36.89
77893;BME280;67087;50.094;14.338;2023-04-01T02:09:55;96326.47;;;25.99;36.96
77893;BME280;67087;50.094;14.338;2023-04-01T02:12:21;96321.29;;;25.96;36.93
77893;BME280;67087;50.094;14.338;2023-04-01T02:14:49;96320.55;;;25.97;36.95
77893;BME280;67087;50.094;14.338;2023-04-01T02:17:13;96321.56;;;25.94;37.05
77893;BME280;67087;50.094;14.338;2023-04-01T02:19:39;96322.63;;;25.73;36.96
77893;BME280;67087;50.094;14.338;2023-04-01T02:22:02;96323.79;;;25.78;36.86
77893;BME280;67087;50.094;14.338;2023-04-01T02:24:28;96326.06;;;26.00;36.86
77893;BME280;67087;50.094;14.338;2023-04-01T02:26:51;96330.44;;;26.02;36.94
77893;BME280;67087;50.094;14.338;2023-04-01T02:29:16;96325.75;;;25.74;36.97
77893;BME280;67087;50.094;14.338;2023-04-01T02:31:41;96333.35;;;25.98;37.00
77893;BME280;67087;50.094;14.338;2023-04-01T02:34:05;96328.25;;;25.66;36.95
77893;BME280;67087;50.094;14.338;2023-04-01T02:36:31;96333.58;;;25.89;37.01
77893;BME280;67087;50.094;14.338;2023-04-01T02:38:57;96332.62;;;26.12;37.03
77893;BME280;67087;50.094;14.338;2023-04-01T02:41:21;96335.87;;;25.85;37.02
77893;BME280;67087;50.094;14.338;2023-04-01T02:43:46;96338.50;;;25.94;36.89
77893;BME280;67087;50.094;14.338;2023-04-01T02:46:11;96338.01;;;25.44;36.95
77893;BME280;67087;50.094;14.338;2023-04-01T02:48:36;96339.12;;;25.92;36.93
77893;BME280;67087;50.094;14.338;2023-04-01T02:51:01;96339.51;;;26.17;36.93
77893;BME280;67087;50.094;14.338;2023-04-01T02:53:26;96339.99;;;25.91;36.88
77893;BME280;67087;50.094;14.338;2023-04-01T02:55:51;96344.86;;;25.91;36.85
77893;BME280;67087;50.094;14.338;2023-04-01T02:58:17;96346.55;;;25.61;36.97
77893;BME280;67087;50.094;14.338;2023-04-01T03:00:42;96353.05;;;25.98;36.87
77893;BME280;67087;50.094;14.338;2023-04-01T03:03:07;96355.21;;;25.88;36.87
77893;BME280;67087;50.094;14.338;2023-04-01T03:05:32;96359.14;;;25.61;36.90
77893;BME280;67087;50.094;14.338;2023-04-01T03:07:57;96358.35;;;25.91;36.79
77893;BME280;67087;50.094;14.338;2023-04-01T03:10:22;96361.01;;;25.90;36.84
77893;BME280;67087;50.094;14.338;2023-04-01T03:12:47;96362.97;;;26.15;36.78
77893;BME280;67087;50.094;14.338;2023-04-01T03:15:13;96361.24;;;25.71;36.72
77893;BME280;67087;50.094;14.338;2023-04-01T03:17:37;96362.07;;;26.14;36.83
77893;BME280;67087;50.094;14.338;2023-04-01T03:20:03;96364.56;;;25.87;36.84
77893;BME280;67087;50.094;14.338;2023-04-01T03:22:27;96360.39;;;25.88;36.77
77893;BME280;67087;50.094;14.338;2023-04-01T03:24:52;96364.55;;;26.05;36.89
77893;BME280;67087;50.094;14.338;2023-04-01T03:27:18;96361.54;;;25.60;36.84
77893;BME280;67087;50.094;14.338;2023-04-01T03:29:43;96361.25;;;25.86;36.75
77893;BME280;67087;50.094;14.338;2023-04-01T03:32:08;96368.55;;;26.11;36.73
77893;BME280;67087;50.094;14.338;2023-04-01T03:34:33;96362.46;;;25.84;36.83
77893;BME280;67087;50.094;14.338;2023-04-01T03:36:58;96367.94;;;26.08;36.77
77893;BME280;67087;50.094;14.338;2023-04-01T03:39:23;96372.29;;;25.85;36.72
77893;BME280;67087;50.094;14.338;2023-04-01T03:41:48;96373.31;;;26.14;36.70
77893;BME280;67087;50.094;14.338;2023-04-01T03:44:13;96374.98;;;25.90;36.66
77893;BME280;67087;50.094;14.338;2023-04-01T03:46:39;96381.09;;;26.15;36.76
77893;BME280;67087;50.094;14.338;2023-04-01T03:49:06;96379.96;;;26.15;36.79
77893;BME280;67087;50.094;14.338;2023-04-01T03:51:29;96383.68;;;26.13;36.76
77893;BME280;67087;50.094;14.338;2023-04-01T03:53:54;96389.39;;;25.94;36.63
77893;BME280;67087;50.094;14.338;2023-04-01T03:56:19;96387.37;;;25.88;36.76
77893;BME280;67087;50.094;14.338;2023-04-01T03:58:44;96389.95;;;26.13;36.75
77893;BME280;67087;50.094;14.338;2023-04-01T04:01:16;96392.28;;;26.14;36.72
77893;BME280;67087;50.094;14.338;2023-04-01T04:03:34;96393.08;;;26.11;36.74
77893;BME280;67087;50.094;14.338;2023-04-01T04:05:59;96394.19;;;25.94;36.57
77893;BME280;67087;50.094;14.338;2023-04-01T04:08:24;96391.26;;;25.61;36.70
77893;BME280;67087;50.094;14.338;2023-04-01T04:10:54;96388.16;;;25.91;36.60
77893;BME280;67087;50.094;14.338;2023-04-01T04:13:14;96392.49;;;25.70;36.54
77893;BME280;67087;50.094;14.338;2023-04-01T04:15:40;96395.82;;;25.92;36.55
77893;BME280;67087;50.094;14.338;2023-04-01T04:18:05;96400.38;;;26.15;36.54
77893;BME280;67087;50.094;14.338;2023-04-01T04:20:30;96404.39;;;26.07;36.69
77893;BME280;67087;50.094;14.338;2023-04-01T04:22:55;96409.12;;;25.82;36.71
77893;BME280;67087;50.094;14.338;2023-04-01T04:25:20;96410.48;;;25.60;36.60
77893;BME280;67087;50.094;14.338;2023-04-01T04:27:45;96412.47;;;26.10;36.61
77893;BME280;67087;50.094;14.338;2023-04-01T04:30:11;96410.94;;;25.81;36.66
77893;BME280;67087;50.094;14.338;2023-04-01T04:32:35;96412.02;;;26.00;36.67
77893;BME280;67087;50.094;14.338;2023-04-01T04:35:00;96413.22;;;25.87;36.51
77893;BME280;67087;50.094;14.338;2023-04-01T04:37:26;96416.43;;;25.81;36.55
77893;BME280;67087;50.094;14.338;2023-04-01T04:39:51;96415.64;;;25.83;36.53
77893;BME280;67087;50.094;14.338;2023-04-01T04:42:16;96417.10;;;25.85;36.48
77893;BME280;67087;50.094;14.338;2023-04-01T04:44:41;96416.97;;;26.03;36.57
77893;BME280;67087;50.094;14.338;2023-04-01T04:47:06;96413.15;;;25.75;36.59
77893;BME280;67087;50.094;14.338;2023-04-01T04:49:31;96413.26;;;25.80;36.48
77893;BME280;67087;50.094;14.338;2023-04-01T04:51:56;96412.18;;;26.01;36.49
77893;BME280;67087;50.094;14.338;2023-04-01T04:54:21;96413.82;;;25.78;36.49
77893;BME280;67087;50.094;14.338;2023-04-01T04:56:46;96418.89;;;25.50;36.60
77893;BME280;67087;50.094;14.338;2023-04-01T04:59:11;96420.23;;;25.77;36.52
77893;BME280;67087;50.094;14.338;2023-04-01T05:01:36;96423.71;;;25.74;36.55
77893;BME280;67087;50.094;14.338;2023-04-01T05:04:02;96425.24;;;26.00;36.49
77893;BME280;67087;50.094;14.338;2023-04-01T05:06:27;96425.25;;;25.78;36.51
77893;BME280;67087;50.094;14.338;2023-04-01T05:08:52;96431.38;;;26.01;36.52
77893;BME280;67087;50.094;14.338;2023-04-01T05:11:18;96428.48;;;25.76;36.55
77893;BME280;67087;50.094;14.338;2023-04-01T05:13:43;96429.15;;;26.06;36.40
77893;BME280;67087;50.094;14.338;2023-04-01T05:16:09;96429.31;;;26.05;36.48
77893;BME280;67087;50.094;14.338;2023-04-01T05:18:32;96428.72;;;25.79;36.54
77893;BME280;67087;50.094;14.338;2023-04-01T05:20:57;96430.48;;;25.99;36.44
77893;BME280;67087;50.094;14.338;2023-04-01T05:23:22;96433.17;;;25.70;36.55
77893;BME280;67087;50.094;14.338;2023-04-01T05:25:48;96427.83;;;25.94;36.49
77893;BME280;67087;50.094;14.338;2023-04-01T05:28:13;96433.67;;;25.80;36.46
77893;BME280;67087;50.094;14.338;2023-04-01T05:30:40;96429.08;;;26.08;36.42
77893;BME280;67087;50.094;14.338;2023-04-01T05:33:03;96432.63;;;26.25;36.29
77893;BME280;67087;50.094;14.338;2023-04-01T05:35:28;96427.89;;;26.32;36.19
77893;BME280;67087;50.094;14.338;2023-04-01T05:37:53;96429.66;;;26.37;36.22
77893;BME280;67087;50.094;14.338;2023-04-01T05:40:18;96427.31;;;25.91;36.73
77893;BME280;67087;50.094;14.338;2023-04-01T05:42:43;96427.01;;;26.41;36.27
77893;BME280;67087;50.094;14.338;2023-04-01T05:45:09;96434.06;;;26.45;36.61
77893;BME280;67087;50.094;14.338;2023-04-01T05:47:33;96433.75;;;26.29;36.65
77893;BME280;67087;50.094;14.338;2023-04-01T05:49:58;96434.69;;;25.98;37.39
77893;BME280;67087;50.094;14.338;2023-04-01T05:52:24;96435.82;;;26.24;37.13
77893;BME280;67087;50.094;14.338;2023-04-01T05:54:49;96435.65;;;25.92;37.07
77893;BME280;67087;50.094;14.338;2023-04-01T05:57:14;96440.28;;;26.44;36.82
77893;BME280;67087;50.094;14.338;2023-04-01T05:59:39;96439.21;;;26.29;36.86
77893;BME280;67087;50.094;14.338;2023-04-01T06:02:04;96441.68;;;26.42;36.93
77893;BME280;67087;50.094;14.338;2023-04-01T06:04:34;96438.66;;;26.40;37.15
77893;BME280;67087;50.094;14.338;2023-04-01T06:06:54;96441.74;;;26.44;36.80
77893;BME280;67087;50.094;14.338;2023-04-01T06:09:24;96439.38;;;26.49;36.37
77893;BME280;67087;50.094;14.338;2023-04-01T06:11:57;96442.70;;;26.24;36.90
77893;BME280;67087;50.094;14.338;2023-04-01T06:14:19;96437.42;;;26.41;36.41
77893;BME280;67087;50.094;14.338;2023-04-01T06:16:43;96436.67;;;26.59;36.53
77893;BME280;67087;50.094;14.338;2023-04-01T06:19:08;96433.15;;;26.50;36.26
77893;BME280;67087;50.094;14.338;2023-04-01T06:21:44;96438.73;;;26.42;36.37
77893;BME280;67087;50.094;14.338;2023-04-01T06:23:57;96436.89;;;26.47;36.22
77893;BME280;67087;50.094;14.338;2023-04-01T06:26:21;96446.24;;;26.53;36.20
77893;BME280;67087;50.094;14.338;2023-04-01T06:28:51;96446.02;;;26.56;36.18
77893;BME280;67087;50.094;14.338;2023-04-01T06:31:12;96452.89;;;26.30;36.87
77893;BME280;67087;50.094;14.338;2023-04-01T06:33:39;96449.94;;;26.33;36.64
77893;BME280;67087;50.094;14.338;2023-04-01T06:36:08;96451.67;;;26.39;36.68
77893;BME280;67087;50.094;14.338;2023-04-01T06:40:58;96455.45;;;26.63;36.77
77893;BME280;67087;50.094;14.338;2023-04-01T06:43:18;96465.09;;;26.52;36.66
77893;BME280;67087;50.094;14.338;2023-04-01T06:45:41;96458.25;;;26.37;36.84
77893;BME280;67087;50.094;14.338;2023-04-01T06:48:11;96459.94;;;26.57;37.03
77893;BME280;67087;50.094;14.338;2023-04-01T06:50:30;96468.67;;;26.51;37.03
77893;BME280;67087;50.094;14.338;2023-04-01T06:53:00;96463.97;;;26.56;37.08
77893;BME280;67087;50.094;14.338;2023-04-01T06:55:26;96468.41;;;26.97;37.93
77893;BME280;67087;50.094;14.338;2023-04-01T06:57:43;96466.38;;;27.01;37.12
77893;BME280;67087;50.094;14.338;2023-04-01T07:00:14;96474.73;;;26.58;37.36
77893;BME280;67087;50.094;14.338;2023-04-01T07:02:38;96469.50;;;26.71;37.32
77893;BME280;67087;50.094;14.338;2023-04-01T07:05:00;96467.94;;;26.96;37.79
77893;BME280;67087;50.094;14.338;2023-04-01T07:07:29;96474.37;;;26.64;37.77
77893;BME280;67087;50.094;14.338;2023-04-01T07:09:50;96470.43;;;26.82;37.77
77893;BME280;67087;50.094;14.338;2023-04-01T07:12:18;96473.67;;;26.22;38.00
77893;BME280;67087;50.094;14.338;2023-04-01T07:14:39;96475.36;;;26.23;38.00
77893;BME280;67087;50.094;14.338;2023-04-01T07:17:07;96478.35;;;26.28;38.15
77893;BME280;67087;50.094;14.338;2023-04-01T07:19:33;96477.85;;;26.53;34.15
77893;BME280;67087;50.094;14.338;2023-04-01T07:21:57;96476.59;;;26.43;35.93
77893;BME280;67087;50.094;14.338;2023-04-01T07:24:23;96480.18;;;26.73;36.50
77893;BME280;67087;50.094;14.338;2023-04-01T07:26:44;96482.06;;;26.62;37.03
77893;BME280;67087;50.094;14.338;2023-04-01T07:29:12;96479.21;;;26.54;37.26
77893;BME280;67087;50.094;14.338;2023-04-01T07:31:51;96485.38;;;26.81;37.18
77893;BME280;67087;50.094;14.338;2023-04-01T07:34:04;96480.11;;;26.47;37.93
77893;BME280;67087;50.094;14.338;2023-04-01T07:36:31;96482.77;;;26.33;37.95
77893;BME280;67087;50.094;14.338;2023-04-01T07:38:57;96475.34;;;26.60;37.45
77893;BME280;67087;50.094;14.338;2023-04-01T07:41:22;96481.69;;;26.71;37.41
77893;BME280;67087;50.094;14.338;2023-04-01T07:43:49;96482.34;;;26.72;30.20
77893;BME280;67087;50.094;14.338;2023-04-01T07:46:13;96480.17;;;26.20;30.04
77893;BME280;67087;50.094;14.338;2023-04-01T07:48:35;96486.83;;;26.00;32.68
77893;BME280;67087;50.094;14.338;2023-04-01T07:50:58;96490.07;;;26.36;33.03
77893;BME280;67087;50.094;14.338;2023-04-01T07:53:25;96482.97;;;26.07;34.80
77893;BME280;67087;50.094;14.338;2023-04-01T07:55:50;96494.91;;;25.96;34.78
77893;BME280;67087;50.094;14.338;2023-04-01T07:58:15;96495.77;;;26.08;35.08
77893;BME280;67087;50.094;14.338;2023-04-01T08:00:42;96500.60;;;26.05;35.69
77893;BME280;67087;50.094;14.338;2023-04-01T08:03:14;96496.14;;;26.17;35.81
77893;BME280;67087;50.094;14.338;2023-04-01T08:05:28;96495.46;;;26.19;36.10
77893;BME280;67087;50.094;14.338;2023-04-01T08:07:57;96501.88;;;26.17;36.17
77893;BME280;67087;50.094;14.338;2023-04-01T08:10:21;96506.06;;;26.29;36.47
77893;BME280;67087;50.094;14.338;2023-04-01T08:12:49;96508.10;;;26.49;36.14
77893;BME280;67087;50.094;14.338;2023-04-01T08:15:13;96506.67;;;26.20;36.64
77893;BME280;67087;50.094;14.338;2023-04-01T08:17:40;96500.74;;;26.50;36.22
77893;BME280;67087;50.094;14.338;2023-04-01T08:20:10;96484.96;;;26.26;36.59
77893;BME280;67087;50.094;14.338;2023-04-01T08:22:27;96508.30;;;26.32;37.06
77893;BME280;67087;50.094;14.338;2023-04-01T08:24:51;96490.62;;;26.57;36.18
77893;BME280;67087;50.094;14.338;2023-04-01T08:27:21;96495.37;;;26.50;36.19
77893;BME280;67087;50.094;14.338;2023-04-01T08:29:42;96487.69;;;26.48;36.32
77893;BME280;67087;50.094;14.338;2023-04-01T08:32:10;96501.16;;;27.34;35.60
77893;BME280;67087;50.094;14.338;2023-04-01T08:34:36;96497.06;;;27.02;36.65
77893;BME280;67087;50.094;14.338;2023-04-01T08:37:00;96502.38;;;26.84;28.69
77893;BME280;67087;50.094;14.338;2023-04-01T08:39:24;96495.05;;;26.44;27.86
77893;BME280;67087;50.094;14.338;2023-04-01T08:42:00;96499.10;;;27.04;27.43
77893;BME280;67087;50.094;14.338;2023-04-01T08:46:55;96509.43;;;26.69;32.87
77893;BME280;67087;50.094;14.338;2023-04-01T08:49:09;96506.19;;;26.68;33.16
77893;BME280;67087;50.094;14.338;2023-04-01T08:51:43;96525.48;;;26.51;34.53
77893;BME280;67087;50.094;14.338;2023-04-01T08:54:06;96501.92;;;26.96;33.96
77893;BME280;67087;50.094;14.338;2023-04-01T08:56:20;96499.62;;;26.03;35.35
77893;BME280;67087;50.094;14.338;2023-04-01T08:58:54;96504.01;;;26.42;31.52
77893;BME280;67087;50.094;14.338;2023-04-01T09:01:16;96507.24;;;26.42;32.81
77893;BME280;67087;50.094;14.338;2023-04-01T09:03:44;96505.90;;;26.58;33.28
77893;BME280;67087;50.094;14.338;2023-04-01T09:08:32;96516.57;;;26.87;34.19
77893;BME280;67087;50.094;14.338;2023-04-01T09:10:59;96513.89;;;26.78;34.47
77893;BME280;67087;50.094;14.338;2023-04-01T09:13:25;96515.15;;;26.99;34.58
77893;BME280;67087;50.094;14.338;2023-04-01T09:15:59;96512.45;;;26.73;35.48
77893;BME280;67087;50.094;14.338;2023-04-01T09:18:20;96513.25;;;26.74;35.38
77893;BME280;67087;50.094;14.338;2023-04-01T09:20:42;96519.66;;;27.03;35.09
77893;BME280;67087;50.094;14.338;2023-04-01T09:23:10;96516.10;;;26.94;35.19
77893;BME280;67087;50.094;14.338;2023-04-01T09:25:32;96512.38;;;26.90;35.32
77893;BME280;67087;50.094;14.338;2023-04-01T09:27:55;96522.07;;;27.31;35.98
77893;BME280;67087;50.094;14.338;2023-04-01T09:30:32;96519.01;;;27.15;36.25
77893;BME280;67087;50.094;14.338;2023-04-01T09:32:53;96518.96;;;27.19;36.36
77893;BME280;67087;50.094;14.338;2023-04-01T09:35:10;96516.31;;;27.00;36.00
77893;BME280;67087;50.094;14.338;2023-04-01T09:37:35;96523.26;;;27.26;36.15
77893;BME280;67087;50.094;14.338;2023-04-01T09:42:34;96522.81;;;26.69;36.74
77893;BME280;67087;50.094;14.338;2023-04-01T09:44:49;96516.33;;;26.48;36.09
77893;BME280;67087;50.094;14.338;2023-04-01T09:47:21;96512.55;;;25.85;36.53
77893;BME280;67087;50.094;14.338;2023-04-01T09:49:48;96522.29;;;26.45;36.44
77893;BME280;67087;50.094;14.338;2023-04-01T09:52:10;96516.63;;;26.90;35.69
77893;BME280;67087;50.094;14.338;2023-04-01T09:54:36;96518.15;;;26.77;35.95
77893;BME280;67087;50.094;14.338;2023-04-01T09:59:37;96521.09;;;26.94;35.98
77893;BME280;67087;50.094;14.338;2023-04-01T10:09:11;96526.24;;;26.84;36.51
77893;BME280;67087;50.094;14.338;2023-04-01T10:16:26;96538.14;;;26.82;37.15
77893;BME280;67087;50.094;14.338;2023-04-01T10:21:19;96534.20;;;26.20;37.57
77893;BME280;67087;50.094;14.338;2023-04-01T10:23:45;96547.52;;;26.26;37.53
77893;BME280;67087;50.094;14.338;2023-04-01T10:28:35;96531.09;;;26.24;37.60
77893;BME280;67087;50.094;14.338;2023-04-01T10:31:07;96528.95;;;26.17;37.60
77893;BME280;67087;50.094;14.338;2023-04-01T10:33:27;96533.47;;;26.15;37.57
77893;BME280;67087;50.094;14.338;2023-04-01T10:40:37;96523.26;;;25.74;37.77
77893;BME280;67087;50.094;14.338;2023-04-01T10:47:59;96516.07;;;26.12;37.34
77893;BME280;67087;50.094;14.338;2023-04-01T10:50:24;96526.51;;;26.06;37.40
77893;BME280;67087;50.094;14.338;2023-04-01T10:57:49;96537.06;;;26.12;37.29
77893;BME280;67087;50.094;14.338;2023-04-01T11:07:22;96527.70;;;25.82;37.20
77893;BME280;67087;50.094;14.338;2023-04-01T11:12:08;96525.74;;;26.09;37.12
77893;BME280;67087;50.094;14.338;2023-04-01T11:14:34;96522.56;;;26.02;37.22
77893;BME280;67087;50.094;14.338;2023-04-01T11:16:59;96522.14;;;26.05;37.10
77893;BME280;67087;50.094;14.338;2023-04-01T11:21:50;96518.56;;;26.32;37.03
77893;BME280;67087;50.094;14.338;2023-04-01T11:24:19;96519.12;;;25.98;37.17
77893;BME280;67087;50.094;14.338;2023-04-01T11:26:33;96527.94;;;25.96;37.20
77893;BME280;67087;50.094;14.338;2023-04-01T11:29:08;96527.16;;;25.89;37.27
77893;BME280;67087;50.094;14.338;2023-04-01T11:31:33;96528.03;;;26.19;37.14
77893;BME280;67087;50.094;14.338;2023-04-01T11:33:45;96530.26;;;26.19;37.12
77893;BME280;67087;50.094;14.338;2023-04-01T11:36:18;96525.64;;;25.80;37.34
77893;BME280;67087;50.094;14.338;2023-04-01T11:38:48;96527.05;;;26.01;37.35
77893;BME280;67087;50.094;14.338;2023-04-01T11:41:07;96528.54;;;26.09;37.23
77893;BME280;67087;50.094;14.338;2023-04-01T11:43:29;96533.14;;;25.82;37.29
77893;BME280;67087;50.094;14.338;2023-04-01T11:45:51;96534.26;;;25.85;37.18
77893;BME280;67087;50.094;14.338;2023-04-01T11:48:27;96534.29;;;25.69;37.04
77893;BME280;67087;50.094;14.338;2023-04-01T11:50:49;96531.10;;;25.90;37.06
77893;BME280;67087;50.094;14.338;2023-04-01T11:53:13;96533.13;;;26.08;37.15
77893;BME280;67087;50.094;14.338;2023-04-01T11:55:38;96533.15;;;25.94;36.98
77893;BME280;67087;50.094;14.338;2023-04-01T11:58:12;96537.16;;;25.73;37.27
77893;BME280;67087;50.094;14.338;2023-04-01T12:00:35;96537.53;;;26.15;37.03
77893;BME280;67087;50.094;14.338;2023-04-01T12:02:55;96540.01;;;26.24;37.21
77893;BME280;67087;50.094;14.338;2023-04-01T12:05:24;96534.27;;;25.75;37.22
77893;BME280;67087;50.094;14.338;2023-04-01T12:07:48;96534.08;;;26.05;37.15
77893;BME280;67087;50.094;14.338;2023-04-01T12:10:10;96540.88;;;25.65;37.31
77893;BME280;67087;50.094;14.338;2023-04-01T12:12:32;96540.69;;;25.61;37.35
77893;BME280;67087;50.094;14.338;2023-04-01T12:14:59;96542.48;;;25.87;37.30
77893;BME280;67087;50.094;14.338;2023-04-01T12:17:26;96550.74;;;25.65;37.27
77893;BME280;67087;50.094;14.338;2023-04-01T12:19:46;96551.95;;;25.72;37.16
77893;BME280;67087;50.094;14.338;2023-04-01T12:22:22;96545.05;;;25.72;37.19
77893;BME280;67087;50.094;14.338;2023-04-01T12:24:42;96543.73;;;25.86;37.28
77893;BME280;67087;50.094;14.338;2023-04-01T12:27:03;96545.60;;;25.71;37.16
77893;BME280;67087;50.094;14.338;2023-04-01T12:31:53;96544.92;;;25.98;37.08
77893;BME280;67087;50.094;14.338;2023-04-01T12:36:44;96541.83;;;26.12;37.13
77893;BME280;67087;50.094;14.338;2023-04-01T12:41:32;96549.52;;;25.66;37.09
77893;BME280;67087;50.094;14.338;2023-04-01T12:44:13;96541.50;;;25.90;37.07
77893;BME280;67087;50.094;14.338;2023-04-01T12:46:22;96541.39;;;25.64;37.07
77893;BME280;67087;50.094;14.338;2023-04-01T12:51:22;96538.53;;;25.88;37.12
77893;BME280;67087;50.094;14.338;2023-04-01T12:53:44;96544.94;;;26.09;36.85
77893;BME280;67087;50.094;14.338;2023-04-01T12:55:57;96546.49;;;26.04;36.56
77893;BME280;67087;50.094;14.338;2023-04-01T12:58:38;96549.64;;;26.47;36.90
77893;BME280;67087;50.094;14.338;2023-04-01T13:00:59;96550.46;;;26.54;36.80
77893;BME280;67087;50.094;14.338;2023-04-01T13:03:23;96544.95;;;25.92;37.10
77893;BME280;67087;50.094;14.338;2023-04-01T13:05:58;96549.89;;;26.62;36.90
77893;BME280;67087;50.094;14.338;2023-04-01T13:08:12;96552.45;;;26.36;36.90
77893;BME280;67087;50.094;14.338;2023-04-01T13:10:45;96549.20;;;26.75;37.08
77893;BME280;67087;50.094;14.338;2023-04-01T13:15:25;96544.97;;;26.45;37.21
77893;BME280;67087;50.094;14.338;2023-04-01T13:17:47;96547.59;;;26.87;37.06
77893;BME280;67087;50.094;14.338;2023-04-01T13:20:16;96552.32;;;26.67;37.03
77893;BME280;67087;50.094;14.338;2023-04-01T13:22:45;96550.62;;;26.69;37.52
77893;BME280;67087;50.094;14.338;2023-04-01T13:25:02;96547.95;;;26.57;37.75
77893;BME280;67087;50.094;14.338;2023-04-01T13:27:29;96548.01;;;26.69;37.72
77893;BME280;67087;50.094;14.338;2023-04-01T13:30:01;96552.78;;;26.58;38.27
77893;BME280;67087;50.094;14.338;2023-04-01T13:32:20;96541.35;;;26.15;32.62
77893;BME280;67087;50.094;14.338;2023-04-01T13:34:48;96544.32;;;26.49;27.89
77893;BME280;67087;50.094;14.338;2023-04-01T13:37:15;96543.58;;;25.71;22.81
77893;BME280;67087;50.094;14.338;2023-04-01T13:39:48;96544.74;;;25.74;24.19
77893;BME280;67087;50.094;14.338;2023-04-01T13:42:10;96542.48;;;25.93;24.05
77893;BME280;67087;50.094;14.338;2023-04-01T13:44:24;96542.42;;;25.50;22.50
77893;BME280;67087;50.094;14.338;2023-04-01T13:47:03;96541.10;;;25.62;24.71
77893;BME280;67087;50.094;14.338;2023-04-01T13:49:21;96549.48;;;25.74;24.15